sensor_id;sensor_type;location;lat;lon;timestamp;P1;durP1;ratioP1;P2;durP2;ratioP2
40116;SDS011;25829;50.228;18.936;2023-04-12T00:01:43;5.97;;;3.60;;
40116;SDS011;25829;50.228;18.936;2023-04-12T00:04:43;4.03;;;3.10;;
40116;SDS011;25829;50.228;18.936;2023-04-12T00:07:44;4.27;;;3.50;;
40116;SDS011;25829;50.228;18.936;2023-04-12T00:10:58;3.97;;;3.47;;
40116;SDS011;25829;50.228;18.936;2023-04-12T00:14:00;3.90;;;3.27;;
40116;SDS011;25829;50.228;18.936;2023-04-12T00:17:00;3.97;;;3.07;;
40116;SDS011;25829;50.228;18.936;2023-04-12T00:20:01;4.20;;;3.10;;
40116;SDS011;25829;50.228;18.936;2023-04-12T00:23:05;4.00;;;3.37;;
40116;SDS011;25829;50.228;18.936;2023-04-12T00:26:06;4.53;;;3.50;;
40116;SDS011;25829;50.228;18.936;2023-04-12T00:29:06;5.40;;;3.13;;
40116;SDS011;25829;50.228;18.936;2023-04-12T00:32:07;4.00;;;3.00;;
40116;SDS011;25829;50.228;18.936;2023-04-12T00:35:08;4.03;;;3.30;;
40116;SDS011;25829;50.228;18.936;2023-04-12T00:38:09;6.37;;;3.87;;
40116;SDS011;25829;50.228;18.936;2023-04-12T00:41:11;5.13;;;3.33;;
40116;SDS011;25829;50.228;18.936;2023-04-12T00:44:13;3.40;;;3.00;;
40116;SDS011;25829;50.228;18.936;2023-04-12T00:47:17;5.87;;;3.30;;
40116;SDS011;25829;50.228;18.936;2023-04-12T00:50:18;4.10;;;3.40;;
40116;SDS011;25829;50.228;18.936;2023-04-12T00:53:20;4.57;;;3.40;;
40116;SDS011;25829;50.228;18.936;2023-04-12T00:56:24;4.70;;;2.90;;
40116;SDS011;25829;50.228;18.936;2023-04-12T00:59:28;4.57;;;2.87;;
40116;SDS011;25829;50.228;18.936;2023-04-12T01:02:29;3.67;;;3.00;;
40116;SDS011;25829;50.228;18.936;2023-04-12T01:05:30;5.93;;;3.27;;
40116;SDS011;25829;50.228;18.936;2023-04-12T01:11:59;3.70;;;2.80;;
40116;SDS011;25829;50.228;18.936;2023-04-12T01:15:08;5.07;;;3.17;;
40116;SDS011;25829;50.228;18.936;2023-04-12T01:18:13;3.90;;;2.93;;
40116;SDS011;25829;50.228;18.936;2023-04-12T01:21:23;3.20;;;2.90;;
40116;SDS011;25829;50.228;18.936;2023-04-12T01:24:37;4.10;;;2.53;;
40116;SDS011;25829;50.228;18.936;2023-04-12T01:27:50;2.87;;;2.50;;
40116;SDS011;25829;50.228;18.936;2023-04-12T01:30:55;6.20;;;2.97;;
40116;SDS011;25829;50.228;18.936;2023-04-12T01:33:57;3.43;;;2.60;;
40116;SDS011;25829;50.228;18.936;2023-04-12T01:37:01;3.80;;;2.37;;
40116;SDS011;25829;50.228;18.936;2023-04-12T01:40:03;3.73;;;2.77;;
40116;SDS011;25829;50.228;18.936;2023-04-12T01:43:09;4.73;;;2.80;;
40116;SDS011;25829;50.228;18.936;2023-04-12T01:46:12;3.40;;;2.50;;
40116;SDS011;25829;50.228;18.936;2023-04-12T01:49:16;4.40;;;2.70;;
40116;SDS011;25829;50.228;18.936;2023-04-12T01:52:18;3.40;;;2.63;;
40116;SDS011;25829;50.228;18.936;2023-04-12T01:55:22;3.00;;;2.70;;
40116;SDS011;25829;50.228;18.936;2023-04-12T01:58:25;3.00;;;2.63;;
40116;SDS011;25829;50.228;18.936;2023-04-12T02:01:26;4.40;;;2.97;;
40116;SDS011;25829;50.228;18.936;2023-04-12T02:04:28;3.40;;;2.60;;
40116;SDS011;25829;50.228;18.936;2023-04-12T02:07:29;4.13;;;2.87;;
40116;SDS011;25829;50.228;18.936;2023-04-12T02:10:30;3.73;;;3.00;;
40116;SDS011;25829;50.228;18.936;2023-04-12T02:13:31;5.03;;;3.13;;
40116;SDS011;25829;50.228;18.936;2023-04-12T02:16:33;4.30;;;3.20;;
40116;SDS011;25829;50.228;18.936;2023-04-12T02:19:34;4.23;;;3.00;;
40116;SDS011;25829;50.228;18.936;2023-04-12T02:22:35;5.27;;;2.90;;
40116;SDS011;25829;50.228;18.936;2023-04-12T02:25:36;3.80;;;2.90;;
40116;SDS011;25829;50.228;18.936;2023-04-12T02:28:38;2.83;;;2.63;;
40116;SDS011;25829;50.228;18.936;2023-04-12T02:31:41;3.97;;;2.87;;
40116;SDS011;25829;50.228;18.936;2023-04-12T02:34:44;3.07;;;2.67;;
40116;SDS011;25829;50.228;18.936;2023-04-12T02:37:52;5.30;;;2.67;;
40116;SDS011;25829;50.228;18.936;2023-04-12T02:40:56;4.83;;;2.80;;
40116;SDS011;25829;50.228;18.936;2023-04-12T02:43:57;5.20;;;3.20;;
40116;SDS011;25829;50.228;18.936;2023-04-12T02:46:58;5.30;;;3.27;;
40116;SDS011;25829;50.228;18.936;2023-04-12T02:49:59;5.00;;;3.10;;
40116;SDS011;25829;50.228;18.936;2023-04-12T02:53:00;3.80;;;2.93;;
40116;SDS011;25829;50.228;18.936;2023-04-12T02:56:02;6.23;;;3.53;;
40116;SDS011;25829;50.228;18.936;2023-04-12T02:59:04;4.80;;;3.80;;
40116;SDS011;25829;50.228;18.936;2023-04-12T03:02:19;5.37;;;3.20;;
40116;SDS011;25829;50.228;18.936;2023-04-12T03:05:20;4.40;;;2.97;;
40116;SDS011;25829;50.228;18.936;2023-04-12T03:08:21;4.07;;;3.30;;
40116;SDS011;25829;50.228;18.936;2023-04-12T03:11:28;4.57;;;3.20;;
40116;SDS011;25829;50.228;18.936;2023-04-12T03:14:30;5.37;;;3.30;;
40116;SDS011;25829;50.228;18.936;2023-04-12T03:17:31;4.30;;;3.10;;
40116;SDS011;25829;50.228;18.936;2023-04-12T03:20:32;3.77;;;3.13;;
40116;SDS011;25829;50.228;18.936;2023-04-12T03:23:37;3.00;;;2.60;;
40116;SDS011;25829;50.228;18.936;2023-04-12T03:26:48;4.90;;;3.47;;
40116;SDS011;25829;50.228;18.936;2023-04-12T03:29:54;7.00;;;3.60;;
40116;SDS011;25829;50.228;18.936;2023-04-12T03:32:57;5.20;;;3.47;;
40116;SDS011;25829;50.228;18.936;2023-04-12T03:35:59;4.23;;;3.17;;
40116;SDS011;25829;50.228;18.936;2023-04-12T03:39:03;8.07;;;3.73;;
40116;SDS011;25829;50.228;18.936;2023-04-12T03:42:07;4.13;;;3.63;;
40116;SDS011;25829;50.228;18.936;2023-04-12T03:45:08;5.73;;;3.80;;
40116;SDS011;25829;50.228;18.936;2023-04-12T03:48:09;4.10;;;3.33;;
40116;SDS011;25829;50.228;18.936;2023-04-12T03:51:15;5.70;;;3.10;;
40116;SDS011;25829;50.228;18.936;2023-04-12T03:54:18;5.13;;;3.37;;
40116;SDS011;25829;50.228;18.936;2023-04-12T03:57:31;5.03;;;3.90;;
40116;SDS011;25829;50.228;18.936;2023-04-12T04:00:32;6.33;;;3.33;;
40116;SDS011;25829;50.228;18.936;2023-04-12T04:03:40;4.50;;;3.20;;
40116;SDS011;25829;50.228;18.936;2023-04-12T04:06:52;6.20;;;3.60;;
40116;SDS011;25829;50.228;18.936;2023-04-12T04:09:54;4.53;;;3.00;;
40116;SDS011;25829;50.228;18.936;2023-04-12T04:12:56;4.43;;;3.23;;
40116;SDS011;25829;50.228;18.936;2023-04-12T04:16:04;4.87;;;3.50;;
40116;SDS011;25829;50.228;18.936;2023-04-12T04:19:06;9.07;;;4.20;;
40116;SDS011;25829;50.228;18.936;2023-04-12T04:22:07;5.27;;;3.70;;
40116;SDS011;25829;50.228;18.936;2023-04-12T04:25:10;6.30;;;3.73;;
40116;SDS011;25829;50.228;18.936;2023-04-12T04:28:15;9.37;;;4.07;;
40116;SDS011;25829;50.228;18.936;2023-04-12T04:31:17;4.70;;;3.60;;
40116;SDS011;25829;50.228;18.936;2023-04-12T04:34:22;4.10;;;3.70;;
40116;SDS011;25829;50.228;18.936;2023-04-12T04:37:28;8.40;;;3.63;;
40116;SDS011;25829;50.228;18.936;2023-04-12T04:40:35;6.00;;;3.90;;
40116;SDS011;25829;50.228;18.936;2023-04-12T04:43:38;5.30;;;3.47;;
40116;SDS011;25829;50.228;18.936;2023-04-12T04:46:40;4.43;;;3.57;;
40116;SDS011;25829;50.228;18.936;2023-04-12T04:49:41;4.60;;;3.47;;
40116;SDS011;25829;50.228;18.936;2023-04-12T04:52:58;4.90;;;3.67;;
40116;SDS011;25829;50.228;18.936;2023-04-12T04:56:00;6.53;;;3.80;;
40116;SDS011;25829;50.228;18.936;2023-04-12T04:59:06;5.80;;;3.50;;
40116;SDS011;25829;50.228;18.936;2023-04-12T05:02:08;7.53;;;3.60;;
40116;SDS011;25829;50.228;18.936;2023-04-12T05:05:11;6.47;;;3.80;;
40116;SDS011;25829;50.228;18.936;2023-04-12T05:08:13;9.00;;;4.00;;
40116;SDS011;25829;50.228;18.936;2023-04-12T05:11:13;6.50;;;3.87;;
40116;SDS011;25829;50.228;18.936;2023-04-12T05:14:15;6.00;;;4.13;;
40116;SDS011;25829;50.228;18.936;2023-04-12T05:17:16;6.13;;;3.60;;
40116;SDS011;25829;50.228;18.936;2023-04-12T05:20:16;7.20;;;4.40;;
40116;SDS011;25829;50.228;18.936;2023-04-12T05:23:18;5.97;;;3.70;;
40116;SDS011;25829;50.228;18.936;2023-04-12T05:26:18;6.37;;;4.40;;
40116;SDS011;25829;50.228;18.936;2023-04-12T05:29:23;5.53;;;4.03;;
40116;SDS011;25829;50.228;18.936;2023-04-12T05:32:27;8.73;;;4.73;;
40116;SDS011;25829;50.228;18.936;2023-04-12T05:35:28;6.60;;;3.90;;
40116;SDS011;25829;50.228;18.936;2023-04-12T05:38:32;7.27;;;4.70;;
40116;SDS011;25829;50.228;18.936;2023-04-12T05:41:38;5.93;;;4.20;;
40116;SDS011;25829;50.228;18.936;2023-04-12T05:44:39;5.30;;;4.17;;
40116;SDS011;25829;50.228;18.936;2023-04-12T05:47:44;6.13;;;4.30;;
40116;SDS011;25829;50.228;18.936;2023-04-12T05:50:52;9.20;;;4.17;;
40116;SDS011;25829;50.228;18.936;2023-04-12T05:53:55;5.10;;;3.97;;
40116;SDS011;25829;50.228;18.936;2023-04-12T05:56:57;4.87;;;4.27;;
40116;SDS011;25829;50.228;18.936;2023-04-12T05:59:58;6.53;;;3.87;;
40116;SDS011;25829;50.228;18.936;2023-04-12T06:02:59;5.63;;;4.40;;
40116;SDS011;25829;50.228;18.936;2023-04-12T06:06:00;6.07;;;4.43;;
40116;SDS011;25829;50.228;18.936;2023-04-12T06:09:02;5.00;;;4.30;;
40116;SDS011;25829;50.228;18.936;2023-04-12T06:12:04;8.53;;;4.53;;
40116;SDS011;25829;50.228;18.936;2023-04-12T06:15:08;5.90;;;4.30;;
40116;SDS011;25829;50.228;18.936;2023-04-12T06:18:10;6.67;;;4.37;;
40116;SDS011;25829;50.228;18.936;2023-04-12T06:21:12;6.50;;;4.57;;
40116;SDS011;25829;50.228;18.936;2023-04-12T06:24:15;6.50;;;4.47;;
40116;SDS011;25829;50.228;18.936;2023-04-12T06:27:15;4.90;;;4.10;;
40116;SDS011;25829;50.228;18.936;2023-04-12T06:30:17;8.37;;;4.80;;
40116;SDS011;25829;50.228;18.936;2023-04-12T06:33:19;5.97;;;4.50;;
40116;SDS011;25829;50.228;18.936;2023-04-12T06:36:23;7.43;;;4.30;;
40116;SDS011;25829;50.228;18.936;2023-04-12T06:39:23;6.50;;;4.90;;
40116;SDS011;25829;50.228;18.936;2023-04-12T06:42:24;6.07;;;4.67;;
40116;SDS011;25829;50.228;18.936;2023-04-12T06:45:28;5.00;;;4.27;;
40116;SDS011;25829;50.228;18.936;2023-04-12T06:48:28;7.70;;;4.93;;
40116;SDS011;25829;50.228;18.936;2023-04-12T06:51:29;9.67;;;4.77;;
40116;SDS011;25829;50.228;18.936;2023-04-12T06:54:30;7.53;;;4.90;;
40116;SDS011;25829;50.228;18.936;2023-04-12T06:57:31;5.40;;;4.70;;
40116;SDS011;25829;50.228;18.936;2023-04-12T07:00:31;5.93;;;4.47;;
40116;SDS011;25829;50.228;18.936;2023-04-12T07:03:33;7.47;;;4.70;;
40116;SDS011;25829;50.228;18.936;2023-04-12T07:06:34;7.90;;;4.70;;
40116;SDS011;25829;50.228;18.936;2023-04-12T07:09:35;7.40;;;4.73;;
40116;SDS011;25829;50.228;18.936;2023-04-12T07:12:36;5.00;;;4.20;;
40116;SDS011;25829;50.228;18.936;2023-04-12T07:15:36;5.87;;;4.30;;
40116;SDS011;25829;50.228;18.936;2023-04-12T07:18:37;5.07;;;4.20;;
40116;SDS011;25829;50.228;18.936;2023-04-12T07:21:39;6.60;;;3.90;;
40116;SDS011;25829;50.228;18.936;2023-04-12T07:24:40;7.57;;;4.90;;
40116;SDS011;25829;50.228;18.936;2023-04-12T07:27:41;5.13;;;4.53;;
40116;SDS011;25829;50.228;18.936;2023-04-12T07:30:42;5.43;;;4.10;;
40116;SDS011;25829;50.228;18.936;2023-04-12T07:33:42;6.53;;;4.27;;
40116;SDS011;25829;50.228;18.936;2023-04-12T07:36:43;6.70;;;4.97;;
40116;SDS011;25829;50.228;18.936;2023-04-12T07:39:44;9.30;;;4.53;;
40116;SDS011;25829;50.228;18.936;2023-04-12T07:42:45;5.97;;;4.50;;
40116;SDS011;25829;50.228;18.936;2023-04-12T07:45:46;4.70;;;4.00;;
40116;SDS011;25829;50.228;18.936;2023-04-12T07:48:46;5.47;;;4.03;;
40116;SDS011;25829;50.228;18.936;2023-04-12T07:51:47;5.67;;;3.73;;
40116;SDS011;25829;50.228;18.936;2023-04-12T07:54:48;8.10;;;4.15;;
40116;SDS011;25829;50.228;18.936;2023-04-12T07:57:48;4.15;;;3.72;;
40116;SDS011;25829;50.228;18.936;2023-04-12T08:00:49;5.55;;;4.10;;
40116;SDS011;25829;50.228;18.936;2023-04-12T08:03:50;5.97;;;3.80;;
40116;SDS011;25829;50.228;18.936;2023-04-12T08:06:51;4.60;;;3.80;;
40116;SDS011;25829;50.228;18.936;2023-04-12T08:09:52;6.50;;;4.05;;
40116;SDS011;25829;50.228;18.936;2023-04-12T08:12:53;5.82;;;4.30;;
40116;SDS011;25829;50.228;18.936;2023-04-12T08:15:53;7.25;;;4.40;;
40116;SDS011;25829;50.228;18.936;2023-04-12T08:18:55;9.30;;;4.28;;
40116;SDS011;25829;50.228;18.936;2023-04-12T08:21:55;6.40;;;3.95;;
40116;SDS011;25829;50.228;18.936;2023-04-12T08:24:56;4.25;;;3.78;;
40116;SDS011;25829;50.228;18.936;2023-04-12T08:27:57;4.95;;;4.45;;
40116;SDS011;25829;50.228;18.936;2023-04-12T08:30:58;5.78;;;3.80;;
40116;SDS011;25829;50.228;18.936;2023-04-12T08:33:59;5.30;;;4.00;;
40116;SDS011;25829;50.228;18.936;2023-04-12T08:37:00;4.35;;;3.88;;
40116;SDS011;25829;50.228;18.936;2023-04-12T08:40:02;4.63;;;3.70;;
40116;SDS011;25829;50.228;18.936;2023-04-12T08:43:06;6.25;;;4.35;;
40116;SDS011;25829;50.228;18.936;2023-04-12T08:46:11;4.57;;;3.83;;
40116;SDS011;25829;50.228;18.936;2023-04-12T08:49:15;4.82;;;3.75;;
40116;SDS011;25829;50.228;18.936;2023-04-12T08:52:16;4.45;;;3.72;;
40116;SDS011;25829;50.228;18.936;2023-04-12T08:55:16;4.85;;;3.60;;
40116;SDS011;25829;50.228;18.936;2023-04-12T08:58:17;5.40;;;3.58;;
40116;SDS011;25829;50.228;18.936;2023-04-12T09:01:20;7.53;;;3.25;;
40116;SDS011;25829;50.228;18.936;2023-04-12T09:04:21;3.45;;;3.13;;
40116;SDS011;25829;50.228;18.936;2023-04-12T09:07:22;4.30;;;3.13;;
40116;SDS011;25829;50.228;18.936;2023-04-12T09:10:31;6.93;;;3.35;;
40116;SDS011;25829;50.228;18.936;2023-04-12T09:13:37;6.00;;;2.95;;
40116;SDS011;25829;50.228;18.936;2023-04-12T09:19:39;3.35;;;3.03;;
40116;SDS011;25829;50.228;18.936;2023-04-12T09:22:40;4.70;;;2.90;;
40116;SDS011;25829;50.228;18.936;2023-04-12T09:25:45;4.28;;;2.80;;
40116;SDS011;25829;50.228;18.936;2023-04-12T09:28:52;5.57;;;3.30;;
40116;SDS011;25829;50.228;18.936;2023-04-12T09:31:58;4.07;;;2.90;;
40116;SDS011;25829;50.228;18.936;2023-04-12T09:35:01;4.65;;;2.83;;
40116;SDS011;25829;50.228;18.936;2023-04-12T09:38:08;4.70;;;2.78;;
40116;SDS011;25829;50.228;18.936;2023-04-12T09:41:18;3.58;;;3.03;;
40116;SDS011;25829;50.228;18.936;2023-04-12T09:44:28;3.08;;;2.78;;
40116;SDS011;25829;50.228;18.936;2023-04-12T09:47:41;3.15;;;2.63;;
40116;SDS011;25829;50.228;18.936;2023-04-12T09:50:45;3.58;;;2.60;;
40116;SDS011;25829;50.228;18.936;2023-04-12T09:53:47;3.55;;;2.38;;
40116;SDS011;25829;50.228;18.936;2023-04-12T09:56:49;4.18;;;2.85;;
40116;SDS011;25829;50.228;18.936;2023-04-12T09:59:50;2.63;;;2.42;;
40116;SDS011;25829;50.228;18.936;2023-04-12T10:02:56;3.10;;;2.33;;
40116;SDS011;25829;50.228;18.936;2023-04-12T10:05:56;3.65;;;2.70;;
40116;SDS011;25829;50.228;18.936;2023-04-12T10:08:58;3.13;;;2.53;;
40116;SDS011;25829;50.228;18.936;2023-04-12T10:12:02;2.70;;;2.47;;
40116;SDS011;25829;50.228;18.936;2023-04-12T10:15:03;2.80;;;2.30;;
40116;SDS011;25829;50.228;18.936;2023-04-12T10:18:12;3.47;;;2.92;;
40116;SDS011;25829;50.228;18.936;2023-04-12T10:21:13;6.55;;;2.85;;
40116;SDS011;25829;50.228;18.936;2023-04-12T10:24:14;5.50;;;2.70;;
40116;SDS011;25829;50.228;18.936;2023-04-12T10:27:25;6.05;;;2.75;;
40116;SDS011;25829;50.228;18.936;2023-04-12T10:30:30;4.63;;;2.67;;
40116;SDS011;25829;50.228;18.936;2023-04-12T10:33:32;3.53;;;2.40;;
40116;SDS011;25829;50.228;18.936;2023-04-12T10:39:55;2.85;;;2.58;;
40116;SDS011;25829;50.228;18.936;2023-04-12T10:47:04;2.42;;;2.20;;
40116;SDS011;25829;50.228;18.936;2023-04-12T10:53:19;2.83;;;2.28;;
40116;SDS011;25829;50.228;18.936;2023-04-12T11:03:07;2.33;;;2.13;;
40116;SDS011;25829;50.228;18.936;2023-04-12T11:06:11;2.50;;;1.92;;
40116;SDS011;25829;50.228;18.936;2023-04-12T11:12:34;2.38;;;2.10;;
40116;SDS011;25829;50.228;18.936;2023-04-12T11:15:37;2.85;;;2.08;;
40116;SDS011;25829;50.228;18.936;2023-04-12T11:18:45;2.85;;;2.08;;
40116;SDS011;25829;50.228;18.936;2023-04-12T11:21:46;2.10;;;1.90;;
40116;SDS011;25829;50.228;18.936;2023-04-12T11:27:51;2.28;;;2.08;;
40116;SDS011;25829;50.228;18.936;2023-04-12T11:30:54;2.00;;;1.83;;
40116;SDS011;25829;50.228;18.936;2023-04-12T11:33:55;2.00;;;1.80;;
40116;SDS011;25829;50.228;18.936;2023-04-12T11:36:59;4.25;;;2.30;;
40116;SDS011;25829;50.228;18.936;2023-04-12T11:40:03;3.88;;;2.10;;
40116;SDS011;25829;50.228;18.936;2023-04-12T11:43:04;2.95;;;2.00;;
40116;SDS011;25829;50.228;18.936;2023-04-12T11:46:05;3.00;;;1.80;;
40116;SDS011;25829;50.228;18.936;2023-04-12T11:49:06;3.00;;;1.98;;
40116;SDS011;25829;50.228;18.936;2023-04-12T11:52:07;5.47;;;2.20;;
40116;SDS011;25829;50.228;18.936;2023-04-12T11:55:08;2.25;;;2.05;;
40116;SDS011;25829;50.228;18.936;2023-04-12T11:58:10;2.25;;;1.95;;
40116;SDS011;25829;50.228;18.936;2023-04-12T12:01:11;2.95;;;1.98;;
40116;SDS011;25829;50.228;18.936;2023-04-12T12:04:13;2.22;;;1.85;;
40116;SDS011;25829;50.228;18.936;2023-04-12T12:07:15;2.72;;;2.05;;
40116;SDS011;25829;50.228;18.936;2023-04-12T12:10:16;2.35;;;2.15;;
40116;SDS011;25829;50.228;18.936;2023-04-12T12:13:17;2.25;;;1.80;;
40116;SDS011;25829;50.228;18.936;2023-04-12T12:16:23;2.80;;;2.05;;
40116;SDS011;25829;50.228;18.936;2023-04-12T12:19:29;2.40;;;2.20;;
40116;SDS011;25829;50.228;18.936;2023-04-12T12:22:35;2.25;;;1.88;;
40116;SDS011;25829;50.228;18.936;2023-04-12T12:25:36;2.17;;;1.65;;
40116;SDS011;25829;50.228;18.936;2023-04-12T12:28:37;3.70;;;1.90;;
40116;SDS011;25829;50.228;18.936;2023-04-12T12:31:39;2.40;;;2.20;;
40116;SDS011;25829;50.228;18.936;2023-04-12T12:34:53;3.53;;;2.00;;
40116;SDS011;25829;50.228;18.936;2023-04-12T12:37:56;2.10;;;1.90;;
40116;SDS011;25829;50.228;18.936;2023-04-12T12:40:58;2.65;;;2.45;;
40116;SDS011;25829;50.228;18.936;2023-04-12T12:43:59;2.50;;;2.08;;
40116;SDS011;25829;50.228;18.936;2023-04-12T12:47:00;2.10;;;1.90;;
40116;SDS011;25829;50.228;18.936;2023-04-12T12:50:01;2.20;;;2.00;;
40116;SDS011;25829;50.228;18.936;2023-04-12T12:53:02;2.25;;;2.05;;
40116;SDS011;25829;50.228;18.936;2023-04-12T12:56:03;2.47;;;2.00;;
40116;SDS011;25829;50.228;18.936;2023-04-12T12:59:06;4.25;;;2.50;;
40116;SDS011;25829;50.228;18.936;2023-04-12T13:02:06;5.32;;;3.20;;
40116;SDS011;25829;50.228;18.936;2023-04-12T13:05:08;3.20;;;2.58;;
40116;SDS011;25829;50.228;18.936;2023-04-12T13:08:09;3.05;;;2.45;;
40116;SDS011;25829;50.228;18.936;2023-04-12T13:11:10;3.20;;;2.30;;
40116;SDS011;25829;50.228;18.936;2023-04-12T13:14:10;3.13;;;2.25;;
40116;SDS011;25829;50.228;18.936;2023-04-12T13:17:11;3.92;;;2.30;;
40116;SDS011;25829;50.228;18.936;2023-04-12T13:20:12;3.08;;;2.78;;
40116;SDS011;25829;50.228;18.936;2023-04-12T13:23:13;2.75;;;2.22;;
40116;SDS011;25829;50.228;18.936;2023-04-12T13:26:15;2.78;;;2.38;;
40116;SDS011;25829;50.228;18.936;2023-04-12T13:29:16;3.05;;;2.28;;
40116;SDS011;25829;50.228;18.936;2023-04-12T13:32:16;3.33;;;3.00;;
40116;SDS011;25829;50.228;18.936;2023-04-12T13:35:18;4.88;;;2.70;;
40116;SDS011;25829;50.228;18.936;2023-04-12T13:38:19;3.55;;;2.13;;
40116;SDS011;25829;50.228;18.936;2023-04-12T13:41:20;3.00;;;2.17;;
40116;SDS011;25829;50.228;18.936;2023-04-12T13:44:21;3.00;;;2.42;;
40116;SDS011;25829;50.228;18.936;2023-04-12T13:47:22;4.85;;;2.78;;
40116;SDS011;25829;50.228;18.936;2023-04-12T13:50:23;3.80;;;2.63;;
40116;SDS011;25829;50.228;18.936;2023-04-12T13:53:23;3.35;;;2.50;;
40116;SDS011;25829;50.228;18.936;2023-04-12T13:56:24;3.45;;;2.95;;
40116;SDS011;25829;50.228;18.936;2023-04-12T13:59:25;2.88;;;2.40;;
40116;SDS011;25829;50.228;18.936;2023-04-12T14:02:25;3.08;;;2.63;;
40116;SDS011;25829;50.228;18.936;2023-04-12T14:05:26;4.28;;;2.83;;
40116;SDS011;25829;50.228;18.936;2023-04-12T14:08:27;4.85;;;3.03;;
40116;SDS011;25829;50.228;18.936;2023-04-12T14:11:29;4.80;;;2.95;;
40116;SDS011;25829;50.228;18.936;2023-04-12T14:14:29;5.75;;;3.08;;
40116;SDS011;25829;50.228;18.936;2023-04-12T14:17:30;3.95;;;3.35;;
40116;SDS011;25829;50.228;18.936;2023-04-12T14:20:34;6.15;;;5.07;;
40116;SDS011;25829;50.228;18.936;2023-04-12T14:23:42;19.85;;;11.27;;
40116;SDS011;25829;50.228;18.936;2023-04-12T14:26:46;14.68;;;8.68;;
40116;SDS011;25829;50.228;18.936;2023-04-12T14:29:53;9.10;;;6.57;;
40116;SDS011;25829;50.228;18.936;2023-04-12T14:32:57;10.10;;;7.18;;
40116;SDS011;25829;50.228;18.936;2023-04-12T14:35:57;6.78;;;4.65;;
40116;SDS011;25829;50.228;18.936;2023-04-12T14:39:07;5.00;;;3.30;;
40116;SDS011;25829;50.228;18.936;2023-04-12T14:42:09;3.33;;;2.83;;
40116;SDS011;25829;50.228;18.936;2023-04-12T14:45:12;4.15;;;3.00;;
40116;SDS011;25829;50.228;18.936;2023-04-12T14:48:15;3.97;;;2.90;;
40116;SDS011;25829;50.228;18.936;2023-04-12T14:51:17;3.42;;;2.95;;
40116;SDS011;25829;50.228;18.936;2023-04-12T14:54:21;5.38;;;3.25;;
40116;SDS011;25829;50.228;18.936;2023-04-12T14:57:27;2.83;;;2.40;;
40116;SDS011;25829;50.228;18.936;2023-04-12T15:00:27;3.58;;;2.53;;
40116;SDS011;25829;50.228;18.936;2023-04-12T15:03:29;3.13;;;2.30;;
40116;SDS011;25829;50.228;18.936;2023-04-12T15:06:32;2.63;;;2.42;;
40116;SDS011;25829;50.228;18.936;2023-04-12T15:09:35;4.10;;;2.53;;
40116;SDS011;25829;50.228;18.936;2023-04-12T15:12:38;3.83;;;2.63;;
40116;SDS011;25829;50.228;18.936;2023-04-12T15:15:39;2.65;;;2.35;;
40116;SDS011;25829;50.228;18.936;2023-04-12T15:18:42;3.50;;;2.58;;
40116;SDS011;25829;50.228;18.936;2023-04-12T15:21:43;4.75;;;2.95;;
40116;SDS011;25829;50.228;18.936;2023-04-12T15:24:45;3.70;;;2.78;;
40116;SDS011;25829;50.228;18.936;2023-04-12T15:27:48;3.90;;;2.78;;
40116;SDS011;25829;50.228;18.936;2023-04-12T15:30:49;3.75;;;2.90;;
40116;SDS011;25829;50.228;18.936;2023-04-12T15:33:50;4.45;;;2.70;;
40116;SDS011;25829;50.228;18.936;2023-04-12T15:36:54;6.00;;;2.78;;
40116;SDS011;25829;50.228;18.936;2023-04-12T15:39:58;4.73;;;3.00;;
40116;SDS011;25829;50.228;18.936;2023-04-12T15:43:00;3.35;;;2.67;;
40116;SDS011;25829;50.228;18.936;2023-04-12T15:46:07;2.90;;;2.63;;
40116;SDS011;25829;50.228;18.936;2023-04-12T15:49:08;3.00;;;2.67;;
40116;SDS011;25829;50.228;18.936;2023-04-12T15:52:09;4.45;;;2.83;;
40116;SDS011;25829;50.228;18.936;2023-04-12T15:55:13;3.47;;;2.63;;
40116;SDS011;25829;50.228;18.936;2023-04-12T15:58:17;5.35;;;3.17;;
40116;SDS011;25829;50.228;18.936;2023-04-12T16:01:18;6.43;;;3.40;;
40116;SDS011;25829;50.228;18.936;2023-04-12T16:04:20;5.60;;;3.20;;
40116;SDS011;25829;50.228;18.936;2023-04-12T16:07:20;5.13;;;3.00;;
40116;SDS011;25829;50.228;18.936;2023-04-12T16:10:31;3.10;;;2.50;;
40116;SDS011;25829;50.228;18.936;2023-04-12T16:13:32;2.90;;;2.17;;
40116;SDS011;25829;50.228;18.936;2023-04-12T16:16:33;5.05;;;2.20;;
40116;SDS011;25829;50.228;18.936;2023-04-12T16:19:37;3.35;;;2.33;;
40116;SDS011;25829;50.228;18.936;2023-04-12T16:22:38;4.25;;;2.50;;
40116;SDS011;25829;50.228;18.936;2023-04-12T16:25:43;5.40;;;2.93;;
40116;SDS011;25829;50.228;18.936;2023-04-12T16:28:45;4.65;;;2.80;;
40116;SDS011;25829;50.228;18.936;2023-04-12T16:31:47;3.05;;;2.60;;
40116;SDS011;25829;50.228;18.936;2023-04-12T16:34:47;4.53;;;2.65;;
40116;SDS011;25829;50.228;18.936;2023-04-12T16:37:50;2.97;;;2.22;;
40116;SDS011;25829;50.228;18.936;2023-04-12T16:40:51;2.20;;;2.00;;
40116;SDS011;25829;50.228;18.936;2023-04-12T16:43:54;4.22;;;2.92;;
40116;SDS011;25829;50.228;18.936;2023-04-12T16:46:58;4.80;;;2.65;;
40116;SDS011;25829;50.228;18.936;2023-04-12T16:49:59;2.83;;;2.40;;
40116;SDS011;25829;50.228;18.936;2023-04-12T16:53:00;5.97;;;2.67;;
40116;SDS011;25829;50.228;18.936;2023-04-12T16:56:01;4.35;;;2.65;;
40116;SDS011;25829;50.228;18.936;2023-04-12T16:59:02;3.73;;;2.70;;
40116;SDS011;25829;50.228;18.936;2023-04-12T17:02:03;6.83;;;2.73;;
40116;SDS011;25829;50.228;18.936;2023-04-12T17:05:04;4.17;;;2.80;;
40116;SDS011;25829;50.228;18.936;2023-04-12T17:08:05;6.90;;;3.20;;
40116;SDS011;25829;50.228;18.936;2023-04-12T17:11:08;4.33;;;2.97;;
40116;SDS011;25829;50.228;18.936;2023-04-12T17:14:09;6.10;;;3.00;;
40116;SDS011;25829;50.228;18.936;2023-04-12T17:17:11;6.33;;;3.13;;
40116;SDS011;25829;50.228;18.936;2023-04-12T17:20:14;6.17;;;3.57;;
40116;SDS011;25829;50.228;18.936;2023-04-12T17:23:16;5.87;;;3.53;;
40116;SDS011;25829;50.228;18.936;2023-04-12T17:26:16;5.40;;;2.77;;
40116;SDS011;25829;50.228;18.936;2023-04-12T17:29:18;5.07;;;2.83;;
40116;SDS011;25829;50.228;18.936;2023-04-12T17:32:19;3.70;;;3.03;;
40116;SDS011;25829;50.228;18.936;2023-04-12T17:35:20;6.63;;;3.00;;
40116;SDS011;25829;50.228;18.936;2023-04-12T17:38:21;4.30;;;2.77;;
40116;SDS011;25829;50.228;18.936;2023-04-12T17:41:22;4.47;;;3.17;;
40116;SDS011;25829;50.228;18.936;2023-04-12T17:44:22;5.70;;;4.10;;
40116;SDS011;25829;50.228;18.936;2023-04-12T17:47:23;7.53;;;3.83;;
40116;SDS011;25829;50.228;18.936;2023-04-12T17:50:24;6.17;;;3.93;;
40116;SDS011;25829;50.228;18.936;2023-04-12T17:53:25;26.20;;;15.53;;
40116;SDS011;25829;50.228;18.936;2023-04-12T17:56:26;23.63;;;13.33;;
40116;SDS011;25829;50.228;18.936;2023-04-12T17:59:27;16.43;;;8.80;;
40116;SDS011;25829;50.228;18.936;2023-04-12T18:02:27;15.30;;;9.43;;
40116;SDS011;25829;50.228;18.936;2023-04-12T18:05:28;24.50;;;10.17;;
40116;SDS011;25829;50.228;18.936;2023-04-12T18:08:29;20.00;;;10.57;;
40116;SDS011;25829;50.228;18.936;2023-04-12T18:11:30;16.23;;;8.67;;
40116;SDS011;25829;50.228;18.936;2023-04-12T18:14:33;22.83;;;10.17;;
40116;SDS011;25829;50.228;18.936;2023-04-12T18:17:34;9.77;;;5.67;;
40116;SDS011;25829;50.228;18.936;2023-04-12T18:20:35;8.70;;;5.40;;
40116;SDS011;25829;50.228;18.936;2023-04-12T18:23:36;9.47;;;5.20;;
40116;SDS011;25829;50.228;18.936;2023-04-12T18:26:37;6.90;;;4.30;;
40116;SDS011;25829;50.228;18.936;2023-04-12T18:29:38;8.63;;;5.17;;
40116;SDS011;25829;50.228;18.936;2023-04-12T18:32:38;10.43;;;5.13;;